METAR Formatted Surface Weather Observation
Issued by NWS

Home | Current Version | Previous Version | Text Only | Print | Product List | Glossary On
Versions: 1 2 3
799
SAUS42 KTAE 260617
MTR1J0
SPECI K1J0 260614Z AUTO 00000KT 3/4SM BR OVC002 24/24 A3009 RMK AO2
T02390239



USA.gov is the U.S. government's official web portal to all federal, state and local government web resources and services.